createdAt,value
2019-04-28T00:01:40.880Z,58.04
2019-04-28T00:04:11.553Z,57.63
2019-04-28T00:06:41.813Z,58.27
2019-04-28T00:09:12.656Z,58.17
2019-04-28T00:11:42.573Z,57.73
2019-04-28T00:14:12.872Z,57.81
2019-04-28T00:16:42.822Z,57.97
2019-04-28T00:19:12.799Z,58.19
2019-04-28T00:21:57.559Z,58.30
2019-04-28T00:24:46.313Z,59.05
2019-04-28T00:27:17.405Z,59.28
2019-04-28T00:29:47.291Z,59.34
2019-04-28T00:32:17.290Z,59.57
2019-04-28T00:34:47.255Z,60.01
2019-04-28T00:37:23.827Z,59.60
2019-04-28T00:39:53.737Z,59.75
2019-04-28T00:42:23.636Z,60.13
2019-04-28T00:44:53.578Z,60.54
2019-04-28T00:47:23.804Z,60.02
2019-04-28T00:49:53.825Z,59.90
2019-04-28T00:52:23.760Z,59.72
2019-04-28T00:54:53.981Z,60.01
2019-04-28T00:57:24.044Z,59.78
2019-04-28T00:59:58.450Z,60.32
2019-04-28T01:02:31.345Z,60.39
2019-04-28T01:05:01.778Z,60.35
2019-04-28T01:07:33.067Z,60.61
2019-04-28T01:10:03.443Z,60.43
2019-04-28T01:12:33.484Z,60.43
2019-04-28T01:15:04.922Z,60.78
2019-04-28T01:17:49.672Z,60.81
2019-04-28T01:20:19.853Z,60.94
2019-04-28T01:22:49.766Z,60.89
2019-04-28T01:25:20.356Z,60.38
2019-04-28T01:27:53.105Z,63.06
2019-04-28T01:30:59.883Z,61.12
2019-04-28T01:33:57.415Z,61.06
2019-04-28T01:36:27.302Z,60.53
2019-04-28T01:38:57.165Z,60.88
2019-04-28T01:41:27.064Z,60.50
2019-04-28T01:43:56.935Z,60.87
2019-04-28T01:46:26.829Z,60.83
2019-04-28T01:48:56.725Z,61.27
2019-04-28T01:51:26.701Z,61.03
2019-04-28T01:53:56.582Z,61.90
2019-04-28T01:56:26.439Z,61.87
2019-04-28T01:58:56.388Z,61.35
2019-04-28T02:01:26.333Z,61.95
2019-04-28T02:03:56.353Z,63.76
2019-04-28T02:06:26.230Z,62.63
2019-04-28T02:08:56.128Z,62.26
2019-04-28T02:11:26.008Z,61.25
2019-04-28T02:13:55.890Z,60.43
2019-04-28T02:16:25.840Z,60.63
2019-04-28T02:18:55.715Z,62.03
2019-04-28T02:21:43.199Z,62.10
2019-04-28T02:24:30.934Z,61.58
2019-04-28T02:27:01.623Z,59.91
2019-04-28T02:29:31.993Z,59.78
2019-04-28T02:32:02.583Z,59.96
2019-04-28T02:34:32.578Z,59.50
2019-04-28T02:37:02.460Z,60.85
2019-04-28T02:39:32.348Z,60.11
2019-04-28T02:42:02.398Z,60.08
2019-04-28T02:44:34.933Z,60.42
2019-04-28T02:47:04.045Z,62.00
2019-04-28T02:49:40.819Z,59.81
2019-04-28T02:52:20.561Z,59.55
2019-04-28T02:54:50.728Z,59.31
2019-04-28T02:57:21.142Z,59.26
2019-04-28T02:59:51.186Z,61.37
2019-04-28T03:02:21.309Z,61.15
2019-04-28T03:04:51.343Z,61.68
2019-04-28T03:07:22.007Z,62.48
2019-04-28T03:09:52.471Z,61.91
2019-04-28T03:12:22.330Z,60.01
2019-04-28T03:14:52.211Z,61.92
2019-04-28T03:17:22.235Z,60.13
2019-04-28T03:19:52.197Z,60.40
2019-04-28T03:22:22.134Z,60.54
2019-04-28T03:24:53.678Z,59.93
2019-04-28T03:27:31.324Z,59.57
2019-04-28T03:30:07.250Z,60.25
2019-04-28T03:32:52.427Z,61.09
2019-04-28T03:35:13.185Z,61.50
2019-04-28T03:37:43.404Z,65.85
2019-04-28T03:40:13.363Z,63.28
2019-04-28T03:42:43.232Z,62.03
2019-04-28T03:45:21.151Z,61.05
2019-04-28T03:47:51.128Z,62.70
2019-04-28T03:50:21.021Z,60.88
2019-04-28T03:52:51.256Z,64.30
2019-04-28T03:55:21.401Z,63.17
2019-04-28T03:57:51.313Z,61.97
2019-04-28T04:00:21.990Z,63.27
2019-04-28T04:02:52.038Z,63.92
2019-04-28T04:05:21.920Z,65.12
2019-04-28T04:07:51.792Z,63.51
2019-04-28T04:10:45.822Z,63.18
2019-04-28T04:13:23.703Z,63.48
2019-04-28T04:16:01.880Z,64.54
2019-04-28T04:18:46.253Z,64.79
2019-04-28T04:21:16.145Z,66.60
2019-04-28T04:23:46.038Z,67.82
2019-04-28T04:26:15.995Z,68.07
2019-04-28T04:28:45.886Z,65.31
2019-04-28T04:31:15.774Z,64.74
2019-04-28T04:33:45.647Z,68.79
2019-04-28T04:36:15.536Z,65.46
2019-04-28T04:38:46.426Z,64.39
2019-04-28T04:41:16.477Z,64.30
2019-04-28T04:43:46.355Z,65.96
2019-04-28T04:46:24.302Z,64.98
2019-04-28T04:48:54.177Z,64.73
2019-04-28T04:51:24.129Z,64.70
2019-04-28T04:53:54.005Z,67.33
2019-04-28T04:56:23.880Z,72.74
2019-04-28T04:58:54.013Z,66.85
2019-04-28T05:01:45.705Z,66.21
2019-04-28T05:04:29.605Z,66.84
2019-04-28T05:06:59.750Z,65.97
2019-04-28T05:09:31.124Z,65.96
2019-04-28T05:12:01.139Z,66.82
2019-04-28T05:14:31.002Z,66.90
2019-04-28T05:17:00.984Z,66.18
2019-04-28T05:19:30.844Z,66.68
2019-04-28T05:22:00.793Z,66.65
2019-04-28T05:24:46.240Z,67.82
2019-04-28T05:27:17.407Z,67.67
2019-04-28T05:29:51.134Z,67.60
2019-04-28T05:32:20.572Z,66.98
2019-04-28T05:34:52.849Z,67.43
2019-04-28T05:37:22.064Z,67.08
2019-04-28T05:39:52.552Z,68.25
2019-04-28T05:42:22.679Z,66.79
2019-04-28T05:44:52.564Z,66.55
2019-04-28T05:47:22.492Z,66.86
2019-04-28T05:49:59.878Z,67.06
2019-04-28T05:52:51.952Z,67.18
2019-04-28T05:55:26.596Z,66.60
2019-04-28T05:58:04.012Z,66.84
2019-04-28T06:01:01.763Z,66.84
2019-04-28T06:03:32.436Z,66.80
2019-04-28T06:06:02.303Z,67.25
2019-04-28T06:08:44.344Z,67.51
2019-04-28T06:11:30.637Z,67.39
2019-04-28T06:14:01.003Z,68.10
2019-04-28T06:16:30.884Z,67.54
2019-04-28T06:19:00.771Z,69.85
2019-04-28T06:21:30.779Z,67.85
2019-04-28T06:24:00.670Z,67.71
2019-04-28T06:26:30.611Z,67.96
2019-04-28T06:29:00.571Z,68.05
2019-04-28T06:31:30.489Z,68.00
2019-04-28T06:34:00.608Z,67.69
2019-04-28T06:36:30.495Z,67.41
2019-04-28T06:39:00.388Z,67.17
2019-04-28T06:41:30.343Z,66.79
2019-04-28T06:44:00.225Z,70.45
2019-04-28T06:46:30.091Z,68.49
2019-04-28T06:48:59.978Z,67.87
2019-04-28T06:51:29.946Z,67.40
2019-04-28T06:53:59.811Z,66.66
2019-04-28T06:56:29.699Z,67.65
2019-04-28T06:58:59.790Z,66.96
2019-04-28T07:01:29.692Z,67.15
2019-04-28T07:03:59.588Z,66.38
2019-04-28T07:06:29.633Z,67.12
2019-04-28T07:08:59.562Z,67.02
2019-04-28T07:11:29.475Z,66.37
2019-04-28T07:13:59.472Z,65.89
2019-04-28T07:16:29.361Z,67.15
2019-04-28T07:18:59.437Z,66.01
2019-04-28T07:21:34.380Z,65.64
2019-04-28T07:24:04.389Z,65.87
2019-04-28T07:26:34.291Z,66.08
2019-04-28T07:29:04.457Z,68.66
2019-04-28T07:31:37.199Z,66.91
2019-04-28T07:34:07.252Z,67.50
2019-04-28T07:36:37.313Z,68.68
2019-04-28T07:39:08.423Z,67.25
2019-04-28T07:41:38.394Z,69.33
2019-04-28T07:44:08.281Z,66.30
2019-04-28T07:46:38.179Z,65.73
2019-04-28T07:49:08.370Z,69.17
2019-04-28T07:51:50.467Z,66.65
2019-04-28T07:54:21.160Z,67.02
2019-04-28T07:56:51.076Z,66.92
2019-04-28T07:59:20.969Z,67.60
2019-04-28T08:01:51.314Z,66.81
2019-04-28T08:04:21.296Z,67.13
2019-04-28T08:06:51.199Z,66.43
2019-04-28T08:09:21.203Z,65.04
2019-04-28T08:11:51.402Z,64.66
2019-04-28T08:14:21.321Z,65.33
2019-04-28T08:16:51.248Z,64.78
2019-04-28T08:19:21.148Z,65.60
2019-04-28T08:21:51.057Z,66.16
2019-04-28T08:24:21.006Z,66.22
2019-04-28T08:26:51.009Z,66.14
2019-04-28T08:29:20.952Z,65.00
2019-04-28T08:31:57.728Z,65.13
2019-04-28T08:34:27.665Z,64.44
2019-04-28T08:36:57.527Z,65.60
2019-04-28T08:39:27.441Z,65.85
2019-04-28T08:41:57.303Z,65.88
2019-04-28T08:44:27.215Z,66.76
2019-04-28T08:46:57.771Z,66.22
2019-04-28T08:49:27.654Z,65.43
2019-04-28T08:51:57.538Z,65.34
2019-04-28T08:54:27.416Z,64.43
2019-04-28T08:56:57.307Z,64.21
2019-04-28T08:59:27.246Z,63.67
2019-04-28T09:01:57.135Z,63.64
2019-04-28T09:04:27.170Z,63.02
2019-04-28T09:06:57.122Z,60.35
2019-04-28T09:09:27.006Z,60.70
2019-04-28T09:11:56.919Z,60.45
2019-04-28T09:14:26.871Z,58.51
2019-04-28T09:16:56.737Z,59.38
2019-04-28T09:19:26.677Z,59.85
2019-04-28T09:21:56.558Z,59.34
2019-04-28T09:24:26.440Z,60.42
2019-04-28T09:26:56.665Z,59.97
2019-04-28T09:29:26.656Z,58.75
2019-04-28T09:31:56.652Z,58.34
2019-04-28T09:34:28.537Z,57.04
2019-04-28T09:36:58.222Z,58.33
2019-04-28T09:39:51.087Z,57.37
2019-04-28T09:42:42.358Z,57.70
2019-04-28T09:45:18.132Z,58.51
2019-04-28T09:47:48.020Z,57.93
2019-04-28T09:50:18.137Z,57.34
2019-04-28T09:52:48.847Z,58.33
2019-04-28T09:55:18.885Z,60.77
2019-04-28T09:57:48.792Z,57.47
2019-04-28T10:00:18.833Z,55.69
2019-04-28T10:02:48.991Z,55.67
2019-04-28T10:05:19.241Z,55.39
2019-04-28T10:07:49.139Z,54.69
2019-04-28T10:10:19.653Z,54.76
2019-04-28T10:12:49.533Z,55.07
2019-04-28T10:15:19.622Z,55.25
2019-04-28T10:17:49.512Z,55.72
2019-04-28T10:20:20.501Z,55.30
2019-04-28T10:22:50.487Z,56.32
2019-04-28T10:25:21.253Z,57.02
2019-04-28T10:27:51.239Z,55.28
2019-04-28T10:30:21.357Z,54.94
2019-04-28T10:32:51.486Z,55.40
2019-04-28T10:35:21.748Z,56.53
2019-04-28T10:37:51.609Z,61.18
2019-04-28T10:40:39.204Z,59.87
2019-04-28T10:43:09.342Z,60.18
2019-04-28T10:45:49.587Z,61.96
2019-04-28T10:48:19.600Z,65.39
2019-04-28T10:50:49.529Z,57.03
2019-04-28T10:53:19.955Z,58.65
2019-04-28T10:55:49.808Z,54.95
2019-04-28T10:58:19.684Z,56.12
2019-04-28T11:00:49.597Z,57.73
2019-04-28T11:03:19.470Z,63.29
2019-04-28T11:05:49.344Z,56.15
2019-04-28T11:08:30.160Z,55.16
2019-04-28T11:11:03.947Z,60.42
2019-04-28T11:13:33.847Z,58.04
2019-04-28T11:16:04.491Z,55.81
2019-04-28T11:18:35.027Z,55.41
2019-04-28T11:21:05.692Z,57.90
2019-04-28T11:23:36.338Z,55.78
2019-04-28T11:26:06.938Z,57.78
2019-04-28T11:28:37.915Z,55.68
2019-04-28T11:31:08.672Z,57.87
2019-04-28T11:33:45.861Z,56.91
2019-04-28T11:36:18.391Z,54.42
2019-04-28T11:38:49.013Z,55.70
2019-04-28T11:41:19.561Z,55.57
2019-04-28T11:43:50.088Z,55.97
2019-04-28T11:46:22.360Z,54.56
2019-04-28T11:48:52.872Z,56.05
2019-04-28T11:51:23.400Z,55.13
2019-04-28T11:53:53.907Z,57.15
2019-04-28T11:56:24.401Z,57.68
2019-04-28T11:58:54.874Z,56.92
2019-04-28T12:01:25.678Z,58.89
2019-04-28T12:03:59.570Z,59.45
2019-04-28T12:06:30.077Z,58.00
2019-04-28T12:09:16.075Z,56.80
2019-04-28T12:11:49.449Z,56.91
2019-04-28T12:14:24.332Z,56.18
2019-04-28T12:17:14.421Z,57.21
2019-04-28T12:19:47.678Z,55.07
2019-04-28T12:22:18.306Z,53.06
2019-04-28T12:24:48.879Z,54.51
2019-04-28T12:27:19.397Z,53.85
2019-04-28T12:29:49.933Z,51.81
2019-04-28T12:32:20.513Z,53.12
2019-04-28T12:34:51.018Z,54.67
2019-04-28T12:37:20.851Z,53.97
2019-04-28T12:39:50.785Z,55.97
2019-04-28T12:42:20.700Z,53.21
2019-04-28T12:44:50.602Z,55.08
2019-04-28T12:47:20.515Z,53.06
2019-04-28T12:49:55.392Z,51.36
2019-04-28T12:52:25.339Z,51.20
2019-04-28T12:54:55.468Z,53.02
2019-04-28T12:57:25.361Z,51.03
2019-04-28T13:00:01.226Z,54.36
2019-04-28T13:02:38.905Z,55.16
2019-04-28T13:05:12.639Z,55.09
2019-04-28T13:07:42.561Z,54.29
2019-04-28T13:10:12.932Z,56.57
2019-04-28T13:12:42.842Z,55.54
2019-04-28T13:15:13.546Z,55.01
2019-04-28T13:17:43.471Z,53.67
2019-04-28T13:20:14.023Z,56.59
2019-04-28T13:22:44.167Z,55.77
2019-04-28T13:25:14.762Z,54.08
2019-04-28T13:27:45.344Z,53.57
2019-04-28T13:30:16.213Z,54.35
2019-04-28T13:32:46.775Z,53.66
2019-04-28T13:35:17.667Z,52.38
2019-04-28T13:37:48.409Z,53.14
2019-04-28T13:40:25.315Z,53.89
2019-04-28T13:42:55.840Z,52.14
2019-04-28T13:45:26.836Z,54.21
2019-04-28T13:47:57.379Z,53.31
2019-04-28T13:50:32.046Z,51.03
2019-04-28T13:53:02.648Z,51.69
2019-04-28T13:55:54.652Z,51.96
2019-04-28T13:58:29.408Z,52.39
2019-04-28T14:01:21.740Z,53.32
2019-04-28T14:04:09.633Z,54.79
2019-04-28T14:06:43.219Z,53.87
2019-04-28T14:09:19.550Z,54.14
2019-04-28T14:11:50.076Z,55.07
2019-04-28T14:14:20.654Z,55.87
2019-04-28T14:16:51.223Z,55.81
2019-04-28T14:19:21.746Z,54.54
2019-04-28T14:21:52.311Z,53.12
2019-04-28T14:24:22.872Z,52.68
2019-04-28T14:26:53.460Z,54.60
2019-04-28T14:29:24.024Z,50.70
2019-04-28T14:31:54.693Z,51.87
2019-04-28T14:34:24.548Z,51.39
2019-04-28T14:36:54.465Z,50.03
2019-04-28T14:39:24.477Z,50.93
2019-04-28T14:41:54.492Z,51.53
2019-04-28T14:44:24.438Z,52.33
2019-04-28T14:46:54.342Z,52.95
2019-04-28T14:49:24.227Z,53.21
2019-04-28T14:51:54.247Z,53.70
2019-04-28T14:54:24.144Z,53.71
2019-04-28T14:56:54.241Z,53.46
2019-04-28T14:59:24.193Z,52.71
2019-04-28T15:02:13.124Z,53.88
2019-04-28T15:05:00.670Z,51.46
2019-04-28T15:07:48.229Z,53.02
2019-04-28T15:10:28.666Z,52.64
2019-04-28T15:12:58.689Z,52.85
2019-04-28T15:15:28.937Z,52.50
2019-04-28T15:17:59.027Z,52.06
2019-04-28T15:20:28.962Z,52.23
2019-04-28T15:22:59.066Z,53.64
2019-04-28T15:25:28.964Z,52.90
2019-04-28T15:27:59.529Z,52.65
2019-04-28T15:30:30.058Z,52.13
2019-04-28T15:32:59.985Z,52.48
2019-04-28T15:35:30.717Z,50.82
2019-04-28T15:38:00.673Z,51.66
2019-04-28T15:40:30.632Z,51.76
2019-04-28T15:43:00.609Z,53.51
2019-04-28T15:45:30.566Z,49.32
2019-04-28T15:48:00.740Z,49.35
2019-04-28T15:50:30.626Z,47.98
2019-04-28T15:53:00.572Z,47.99
2019-04-28T15:55:36.684Z,48.23
2019-04-28T15:58:24.181Z,49.05
2019-04-28T16:00:54.160Z,52.24
2019-04-28T16:03:24.057Z,51.33
2019-04-28T16:05:53.925Z,53.44
2019-04-28T16:08:23.839Z,51.45
2019-04-28T16:10:54.138Z,50.47
2019-04-28T16:13:24.643Z,52.92
2019-04-28T16:15:55.174Z,54.08
2019-04-28T16:18:25.843Z,52.87
2019-04-28T16:20:56.206Z,50.56
2019-04-28T16:23:26.495Z,49.25
2019-04-28T16:25:56.657Z,53.78
2019-04-28T16:28:26.597Z,49.47
2019-04-28T16:30:56.748Z,49.80
2019-04-28T16:33:26.692Z,55.31
2019-04-28T16:35:56.578Z,50.21
2019-04-28T16:38:26.475Z,51.86
2019-04-28T16:40:56.622Z,51.11
2019-04-28T16:43:26.630Z,51.95
2019-04-28T16:45:56.593Z,51.06
2019-04-28T16:48:26.668Z,51.47
2019-04-28T16:50:57.012Z,51.45
2019-04-28T16:53:26.895Z,48.57
2019-04-28T16:56:11.640Z,50.08
2019-04-28T16:58:48.628Z,55.09
2019-04-28T17:01:49.451Z,53.26
2019-04-28T17:04:19.431Z,50.24
2019-04-28T17:06:49.337Z,54.00
2019-04-28T17:09:19.538Z,53.17
2019-04-28T17:11:49.445Z,49.99
2019-04-28T17:14:19.486Z,53.06
2019-04-28T17:16:49.631Z,54.65
2019-04-28T17:19:19.590Z,49.76
2019-04-28T17:21:49.522Z,50.15
2019-04-28T17:24:19.456Z,49.96
2019-04-28T17:26:49.352Z,50.93
2019-04-28T17:29:19.222Z,50.76
2019-04-28T17:31:49.348Z,49.98
2019-04-28T17:34:19.307Z,49.77
2019-04-28T17:36:49.211Z,49.77
2019-04-28T17:39:21.869Z,49.98
2019-04-28T17:41:52.590Z,50.37
2019-04-28T17:44:23.296Z,50.33
2019-04-28T17:46:53.584Z,50.93
2019-04-28T17:49:29.442Z,51.97
2019-04-28T17:51:59.769Z,51.40
2019-04-28T17:54:29.645Z,51.27
2019-04-28T17:56:59.527Z,52.33
2019-04-28T17:59:29.470Z,53.80
2019-04-28T18:02:33.461Z,53.26
2019-04-28T18:05:13.898Z,54.19
2019-04-28T18:07:44.522Z,54.29
2019-04-28T18:10:14.606Z,54.50
2019-04-28T18:12:44.569Z,54.03
2019-04-28T18:15:24.802Z,53.82
2019-04-28T18:18:03.163Z,54.07
2019-04-28T18:20:33.028Z,54.25
2019-04-28T18:23:02.927Z,54.96
2019-04-28T18:25:32.949Z,55.18
2019-04-28T18:28:02.824Z,55.68
2019-04-28T18:30:35.264Z,56.98
2019-04-28T18:33:22.956Z,58.25
2019-04-28T18:35:57.205Z,57.51
2019-04-28T18:38:36.382Z,56.19
2019-04-28T18:41:25.233Z,55.59
2019-04-28T18:44:03.935Z,56.64
2019-04-28T18:46:33.871Z,57.08
2019-04-28T18:49:03.924Z,56.58
2019-04-28T18:51:33.904Z,57.04
2019-04-28T18:54:03.876Z,56.94
2019-04-28T18:56:33.793Z,56.12
2019-04-28T18:59:03.840Z,57.44
2019-04-28T19:01:46.059Z,58.18
2019-04-28T19:04:15.950Z,57.30
2019-04-28T19:06:45.853Z,57.51
2019-04-28T19:09:26.696Z,57.73
2019-04-28T19:12:15.579Z,57.17
2019-04-28T19:14:54.564Z,58.31
2019-04-28T19:17:39.636Z,57.77
2019-04-28T19:20:10.008Z,58.34
2019-04-28T19:22:46.901Z,57.90
2019-04-28T19:25:16.780Z,57.28
2019-04-28T19:27:46.663Z,58.17
2019-04-28T19:30:16.750Z,58.52
2019-04-28T19:32:46.866Z,57.85
2019-04-28T19:35:16.743Z,57.50
2019-04-28T19:37:46.607Z,58.16
2019-04-28T19:40:16.672Z,58.06
2019-04-28T19:42:46.778Z,58.55
2019-04-28T19:45:18.754Z,59.49
2019-04-28T19:47:48.660Z,58.43
2019-04-28T19:50:18.547Z,58.92
2019-04-28T19:52:48.488Z,58.90
2019-04-28T19:55:22.319Z,59.13
2019-04-28T19:58:10.675Z,58.35
2019-04-28T20:00:51.139Z,59.01
2019-04-28T20:03:22.805Z,59.56
2019-04-28T20:05:52.799Z,59.64
2019-04-28T20:08:22.772Z,58.43
2019-04-28T20:10:52.779Z,58.05
2019-04-28T20:13:22.693Z,58.66
2019-04-28T20:15:52.586Z,58.71
2019-04-28T20:18:22.498Z,59.17
2019-04-28T20:20:52.831Z,59.44
2019-04-28T20:23:22.731Z,59.11
2019-04-28T20:25:52.617Z,59.06
2019-04-28T20:28:23.214Z,59.73
2019-04-28T20:30:54.161Z,59.95
2019-04-28T20:33:24.920Z,59.81
2019-04-28T20:35:58.895Z,60.59
2019-04-28T20:38:31.277Z,60.60
2019-04-28T20:41:30.086Z,60.94
2019-04-28T20:44:00.653Z,60.78
2019-04-28T20:46:30.924Z,60.51
2019-04-28T20:49:01.224Z,60.31
2019-04-28T20:51:31.469Z,60.42
2019-04-28T20:54:01.423Z,61.96
2019-04-28T20:56:31.346Z,62.18
2019-04-28T20:59:01.550Z,62.82
2019-04-28T21:01:31.576Z,62.12
2019-04-28T21:04:01.648Z,61.26
2019-04-28T21:06:32.279Z,62.57
2019-04-28T21:09:02.420Z,61.07
2019-04-28T21:11:32.299Z,60.91
2019-04-28T21:14:03.875Z,61.95
2019-04-28T21:16:34.135Z,62.37
2019-04-28T21:19:04.440Z,62.03
2019-04-28T21:21:34.588Z,61.14
2019-04-28T21:24:04.701Z,62.39
2019-04-28T21:26:34.901Z,62.69
2019-04-28T21:29:04.865Z,63.00
2019-04-28T21:31:35.437Z,63.64
2019-04-28T21:34:05.873Z,61.56
2019-04-28T21:36:35.767Z,61.67
2019-04-28T21:39:09.138Z,62.71
2019-04-28T21:41:39.138Z,62.48
2019-04-28T21:44:20.112Z,63.38
2019-04-28T21:46:59.324Z,61.82
2019-04-28T21:49:31.544Z,61.71
2019-04-28T21:52:01.557Z,62.38
2019-04-28T21:54:31.455Z,63.74
2019-04-28T21:57:01.878Z,62.97
2019-04-28T21:59:32.332Z,63.73
2019-04-28T22:02:02.299Z,63.69
2019-04-28T22:04:32.584Z,63.56
2019-04-28T22:07:03.225Z,64.02
2019-04-28T22:09:33.166Z,62.84
2019-04-28T22:12:03.090Z,63.45
2019-04-28T22:14:33.265Z,62.53
2019-04-28T22:17:03.270Z,64.11
2019-04-28T22:19:33.181Z,62.79
2019-04-28T22:22:03.194Z,63.43
2019-04-28T22:24:40.940Z,63.01
2019-04-28T22:27:12.926Z,63.02
2019-04-28T22:29:42.899Z,63.15
2019-04-28T22:32:12.803Z,64.08
2019-04-28T22:34:42.675Z,63.11
2019-04-28T22:37:12.525Z,63.52
2019-04-28T22:39:42.412Z,63.97
2019-04-28T22:42:12.483Z,64.13
2019-04-28T22:44:42.373Z,63.51
2019-04-28T22:47:12.267Z,64.67
2019-04-28T22:49:42.159Z,64.79
2019-04-28T22:52:12.041Z,64.70
2019-04-28T22:55:00.883Z,65.71
2019-04-28T22:57:52.921Z,65.09
2019-04-28T23:00:46.529Z,64.75
2019-04-28T23:03:27.257Z,65.01
2019-04-28T23:05:58.420Z,65.29
2019-04-28T23:08:28.560Z,65.58
2019-04-28T23:11:00.060Z,65.82
2019-04-28T23:13:30.075Z,63.84
2019-04-28T23:16:00.226Z,65.28
2019-04-28T23:18:38.985Z,65.21
2019-04-28T23:21:17.356Z,65.72
2019-04-28T23:23:47.246Z,65.57
2019-04-28T23:26:17.197Z,65.08
2019-04-28T23:28:47.075Z,64.83
2019-04-28T23:31:16.938Z,65.85
2019-04-28T23:33:46.805Z,63.87
2019-04-28T23:36:16.676Z,63.83
2019-04-28T23:38:46.544Z,65.84
2019-04-28T23:41:24.705Z,65.06
2019-04-28T23:43:54.575Z,65.08
2019-04-28T23:46:26.096Z,64.06
2019-04-28T23:48:56.233Z,65.45
2019-04-28T23:51:38.928Z,66.28
2019-04-28T23:54:08.791Z,64.80
2019-04-28T23:56:38.662Z,65.92
2019-04-28T23:59:08.610Z,65.84
